Time;durP1;ratioP1;P1;durP2;ratioP2;P2;SDS_P1;SDS_P2;PMS_P1;PMS_P2;Temp;Humidity;BMP_temperature;BMP_pressure;BME280_temperature;BME280_humidity;BME280_pressure;Samples;Min_cycle;Max_cycle;Signal;HPM_P1;HPM_P2
2021/04/13 00:01:29;;;;;;;19.90;9.60;;;1.60;1.00;;;-143.32;100.00;53507.44;5014507;28;20804;-90
2021/04/13 00:04:07;;;;;;;15.83;9.20;;;1.60;1.00;;;-143.32;100.00;53509.47;5015529;28;20506;-91
2021/04/13 00:06:39;;;;;;;20.83;9.33;;;1.60;1.00;;;-143.32;100.00;53495.31;5014208;28;20940;-91
2021/04/13 00:09:24;;;;;;;19.73;8.53;;;1.60;1.00;;;-143.32;100.00;53475.13;5016018;28;20963;-91
2021/04/13 00:11:54;;;;;;;25.77;10.10;;;1.60;1.00;;;-143.32;100.00;53505.44;5017513;28;20474;-91
2021/04/13 00:14:26;;;;;;;14.03;8.83;;;1.50;1.00;;;-143.32;100.00;53505.44;5017701;28;20438;-93
2021/04/13 00:17:02;;;;;;;18.07;9.30;;;1.50;1.00;;;-143.32;100.00;53465.03;5015556;28;20813;-92
2021/04/13 00:19:43;;;;;;;13.67;9.60;;;1.40;1.00;;;-143.32;100.00;53463.00;5020111;28;20473;-91
2021/04/13 00:22:11;;;;;;;27.20;9.70;;;1.40;1.00;;;-143.32;100.00;53471.09;5018434;28;20430;-91
2021/04/13 00:24:38;;;;;;;13.83;9.70;;;1.40;18.00;;;-143.32;100.00;53465.03;5018611;28;20890;-91
2021/04/13 00:27:05;;;;;;;18.53;9.20;;;1.30;25.40;;;-143.32;100.00;53477.16;5016241;28;20547;-92
2021/04/13 00:29:33;;;;;;;16.63;9.63;;;1.30;41.60;;;-143.32;100.00;53485.22;5014825;28;20438;-91
2021/04/13 00:32:04;;;;;;;16.93;9.40;;;1.40;54.90;;;-143.32;100.00;53495.31;5013881;28;20481;-92
2021/04/13 00:34:41;;;;;;;15.07;9.43;;;1.20;33.20;;;-143.32;100.00;53525.63;5017396;28;20466;-91
2021/04/13 00:37:23;;;;;;;16.00;10.50;;;1.20;28.70;;;-143.32;100.00;53458.97;5020538;28;20446;-92
2021/04/13 00:39:52;;;;;;;13.90;8.87;;;1.20;72.60;;;-143.32;100.00;53473.09;5025911;28;20963;-90
2021/04/13 00:42:28;;;;;;;18.40;10.20;;;1.20;97.60;;;-143.32;100.00;53503.41;5017964;28;20430;-92
2021/04/13 00:45:00;;;;;;;21.03;10.17;;;1.20;78.10;;;-143.32;100.00;53481.19;5017529;28;20445;-93
2021/04/13 00:47:33;;;;;;;17.97;9.37;;;1.10;1.00;;;-143.32;100.00;53523.59;5016997;28;20453;-92
2021/04/13 00:50:09;;;;;;;13.90;9.10;;;1.10;1.00;;;-143.32;100.00;53505.44;5015986;28;20454;-90
2021/04/13 00:52:41;;;;;;;16.00;9.50;;;1.10;1.00;;;-143.32;100.00;53450.88;5014028;28;20415;-92
2021/04/13 00:55:13;;;;;;;15.27;8.83;;;1.10;1.00;;;-143.32;100.00;53503.41;5013930;28;20446;-92
2021/04/13 00:57:45;;;;;;;20.83;9.73;;;1.10;1.00;;;-143.32;100.00;53475.13;5013838;28;20407;-90
2021/04/13 01:00:19;;;;;;;18.93;10.13;;;1.10;1.00;;;-143.32;100.00;53487.25;5013930;28;20936;-92
2021/04/13 01:02:46;;;;;;;14.77;9.67;;;1.20;1.00;;;-143.32;100.00;53489.25;5016191;28;20418;-91
2021/04/13 01:05:18;;;;;;;20.33;10.20;;;1.10;1.00;;;-143.32;100.00;53475.13;5018363;28;20438;-91
2021/04/13 01:07:49;;;;;;;17.20;9.20;;;1.10;1.00;;;-143.32;100.00;53458.97;5018183;28;20418;-92
2021/04/13 01:10:19;;;;;;;17.10;9.90;;;1.10;50.30;;;-143.32;100.00;53491.28;5017961;28;20532;-91
2021/04/13 01:12:58;;;;;;;16.63;9.67;;;1.10;68.70;;;-143.32;100.00;53448.88;5017515;28;20450;-91
2021/04/13 01:15:25;;;;;;;21.80;11.60;;;1.00;91.50;;;-143.32;100.00;53442.81;5017691;28;20809;-91
2021/04/13 01:17:55;;;;;;;15.60;10.80;;;1.10;99.30;;;-143.32;100.00;53448.88;5017114;28;20449;-91
2021/04/13 01:20:35;;;;;;;15.10;10.57;;;1.00;99.90;;;-143.32;100.00;53473.09;5017209;28;20558;-92
2021/04/13 01:23:06;;;;;;;13.50;10.00;;;1.00;91.80;;;-143.32;100.00;53467.06;5017472;28;20426;-90
2021/04/13 01:25:39;;;;;;;16.57;11.20;;;0.90;91.60;;;-143.32;100.00;53450.88;5017974;28;20461;-90
2021/04/13 01:28:17;;;;;;;19.07;10.10;;;1.00;99.90;;;-143.32;100.00;53444.84;5017223;28;20465;-93
2021/04/13 01:30:48;;;;;;;17.53;10.30;;;0.80;99.90;;;-143.32;100.00;53440.78;5018647;28;20556;-91
2021/04/13 01:38:02;;;;;;;24.00;10.20;;;0.80;99.90;;;-143.32;100.00;53394.34;4937650;29;20453;-90
2021/04/13 01:40:42;;;;;;;17.47;9.80;;;0.80;99.90;;;-143.32;100.00;53392.31;4971747;28;20461;-90
2021/04/13 01:43:10;;;;;;;18.33;10.30;;;1.00;99.90;;;-143.32;100.00;53404.44;5019405;28;20438;-91
2021/04/13 01:45:39;;;;;;;16.57;10.20;;;0.80;99.90;;;-143.32;100.00;53422.63;5018626;28;20480;-91
2021/04/13 01:48:08;;;;;;;29.97;11.97;;;0.70;99.90;;;-143.32;100.00;53398.38;5017010;28;20825;-90
2021/04/13 01:50:40;;;;;;;25.47;11.43;;;0.70;99.90;;;-143.32;100.00;53392.31;5017621;28;20568;-91
2021/04/13 01:53:10;;;;;;;17.00;10.30;;;0.80;99.90;;;-143.32;100.00;53432.72;5017529;28;20434;-91
2021/04/13 01:55:47;;;;;;;15.10;9.53;;;0.90;99.90;;;-143.32;100.00;53384.25;5016863;28;20437;-91
2021/04/13 01:58:23;;;;;;;18.70;10.10;;;0.80;99.90;;;-143.32;100.00;53396.34;5017808;28;20513;-91
2021/04/13 02:00:58;;;;;;;14.47;9.97;;;0.70;99.90;;;-143.32;100.00;53360.00;5019566;28;20448;-91
2021/04/13 02:03:33;;;;;;;25.00;10.60;;;0.80;99.90;;;-143.32;100.00;53398.38;5019534;28;20900;-91
2021/04/13 02:06:05;;;;;;;21.10;10.17;;;0.90;99.90;;;-143.32;100.00;53404.44;5019665;28;20433;-91
2021/04/13 02:08:45;;;;;;;32.30;10.13;;;0.70;99.90;;;-143.32;100.00;53384.25;5017663;28;20645;-91
2021/04/13 02:11:24;;;;;;;19.50;10.10;;;0.60;99.90;;;-143.32;100.00;53374.16;5016133;28;20487;-91
2021/04/13 02:14:07;;;;;;;13.70;10.03;;;0.70;99.90;;;-143.32;100.00;53384.25;5016649;28;20466;-91
2021/04/13 02:16:40;;;;;;;20.57;12.00;;;0.70;99.90;;;-143.32;100.00;53382.22;5016185;28;20437;-90
2021/04/13 02:19:11;;;;;;;19.37;10.30;;;0.70;99.90;;;-143.32;100.00;53380.19;5017463;28;20766;-90
2021/04/13 02:21:43;;;;;;;28.50;11.53;;;0.70;99.90;;;-143.32;100.00;53372.13;5016700;28;20454;-90
2021/04/13 02:24:14;;;;;;;33.37;11.10;;;0.70;99.90;;;-143.32;100.00;53339.81;5016957;28;20449;-92
2021/04/13 02:26:51;;;;;;;19.53;11.40;;;0.70;99.90;;;-143.32;100.00;53394.34;5016897;28;20498;-90
2021/04/13 02:29:21;;;;;;;18.00;10.00;;;0.80;99.90;;;-143.32;100.00;53380.19;5016326;28;20495;-91
2021/04/13 02:31:54;;;;;;;26.20;12.07;;;0.60;99.90;;;-143.32;100.00;53422.63;5015825;28;20980;-91
2021/04/13 02:34:27;;;;;;;21.13;11.47;;;0.70;99.90;;;-143.32;100.00;53335.78;5016202;28;20435;-92
2021/04/13 02:37:02;;;;;;;24.80;12.77;;;0.50;99.90;;;-143.32;100.00;53374.16;5016753;28;20444;-91
2021/04/13 02:39:33;;;;;;;21.57;12.70;;;0.40;99.90;;;-143.32;100.00;53353.94;5016899;28;20769;-92
2021/04/13 02:42:14;;;;;;;16.27;11.40;;;0.40;99.90;;;-143.32;100.00;53362.03;5016431;28;20882;-92
2021/04/13 02:44:41;;;;;;;19.23;11.83;;;0.40;99.90;;;-143.32;100.00;53335.78;5017386;28;20426;-91
2021/04/13 02:47:13;;;;;;;20.37;12.40;;;0.40;99.90;;;-143.32;100.00;53309.50;5016535;28;20533;-92
2021/04/13 02:49:42;;;;;;;23.73;12.57;;;0.40;99.90;;;-143.32;100.00;53301.44;5015884;28;20518;-90
2021/04/13 02:52:17;;;;;;;24.10;12.40;;;0.40;99.90;;;-143.32;100.00;53283.25;5015773;28;20474;-92
2021/04/13 02:54:49;;;;;;;24.40;12.53;;;0.40;99.90;;;-143.32;100.00;53301.44;5016831;28;20430;-93
2021/04/13 02:57:25;;;;;;;23.97;13.00;;;0.40;99.90;;;-143.32;100.00;53261.03;5016668;28;20754;-92
2021/04/13 03:00:03;;;;;;;18.53;11.97;;;0.40;99.90;;;-143.32;100.00;53257.00;5016318;28;20496;-91
2021/04/13 03:02:42;;;;;;;22.00;12.63;;;0.50;99.90;;;-143.32;100.00;53259.03;5015569;28;20920;-91
2021/04/13 03:05:15;;;;;;;21.23;11.97;;;0.50;99.90;;;-143.32;100.00;53244.88;5015860;28;20430;-91
2021/04/13 03:07:42;;;;;;;23.90;12.00;;;0.50;99.90;;;-143.32;100.00;53289.31;5016202;28;20920;-92
2021/04/13 03:10:12;;;;;;;18.70;11.60;;;0.50;99.90;;;-143.32;100.00;53257.00;5016430;28;20801;-91
2021/04/13 03:12:44;;;;;;;22.83;11.43;;;0.60;99.90;;;-143.32;100.00;53236.81;5015377;28;20469;-93
2021/04/13 03:15:15;;;;;;;21.20;11.50;;;0.60;99.90;;;-143.32;100.00;53252.97;5015475;28;20781;-91
2021/04/13 03:17:47;;;;;;;31.83;12.97;;;0.70;99.90;;;-143.32;100.00;53222.66;5015021;28;20434;-91
2021/04/13 03:20:23;;;;;;;21.30;12.17;;;0.70;99.90;;;-143.32;100.00;53267.09;5015548;28;20893;-91
2021/04/13 03:22:54;;;;;;;19.87;11.47;;;0.70;99.90;;;-143.32;100.00;53283.25;5015340;28;20438;-91
2021/04/13 03:25:26;;;;;;;22.47;11.37;;;0.70;99.90;;;-143.32;100.00;53285.28;5014811;28;20906;-91
2021/04/13 03:27:53;;;;;;;27.23;14.70;;;0.70;99.90;;;-143.32;100.00;53252.97;5014713;28;20513;-92
2021/04/13 03:30:26;;;;;;;19.60;11.20;;;0.60;99.90;;;-143.32;100.00;53265.09;5014963;28;20462;-91
2021/04/13 03:32:59;;;;;;;21.00;12.50;;;0.70;99.90;;;-143.32;100.00;53273.16;5017064;28;20473;-92
2021/04/13 03:35:29;;;;;;;18.70;11.87;;;0.60;99.90;;;-143.32;100.00;53224.69;5017865;28;20445;-90
2021/04/13 03:37:58;;;;;;;21.60;11.60;;;0.70;99.90;;;-143.32;100.00;53192.38;5017462;28;20521;-91
2021/04/13 03:40:28;;;;;;;27.10;12.33;;;0.70;99.90;;;-143.32;100.00;53224.69;5017726;28;20452;-91
2021/04/13 03:43:02;;;;;;;19.77;10.77;;;0.80;99.90;;;-143.32;100.00;53186.31;5017756;28;20415;-92
2021/04/13 03:45:31;;;;;;;18.63;11.33;;;0.90;99.90;;;-143.32;100.00;53204.50;5018894;28;20443;-91
2021/04/13 03:48:02;;;;;;;17.83;11.20;;;0.90;99.90;;;-143.32;100.00;53218.63;5028111;28;20441;-94
2021/04/13 03:50:53;;;;;;;19.40;12.67;;;1.00;99.90;;;-143.32;100.00;53188.34;5028079;28;20529;-93
2021/04/13 03:53:39;;;;;;;18.50;10.67;;;1.10;99.90;;;-143.32;100.00;53202.47;5030944;28;20589;-91
2021/04/13 03:56:25;;;;;;;18.30;11.13;;;1.10;99.90;;;-143.32;100.00;53206.50;5030115;28;20453;-93
2021/04/13 03:59:05;;;;;;;24.17;10.90;;;1.10;99.90;;;-143.32;100.00;53176.22;5029210;28;20442;-93
2021/04/13 04:01:36;;;;;;;17.43;9.60;;;1.10;99.90;;;-143.32;100.00;53190.34;5026214;28;20508;-93
2021/04/13 04:04:09;;;;;;;19.83;11.60;;;1.10;99.90;;;-143.32;100.00;53208.53;5025855;28;20450;-94
2021/04/13 04:07:00;;;;;;;20.20;10.40;;;1.10;99.90;;;-143.32;100.00;53218.63;5027284;28;20458;-92
2021/04/13 04:09:41;;;;;;;17.47;10.20;;;1.10;99.90;;;-143.32;100.00;53202.47;5028149;28;20446;-92
2021/04/13 04:12:27;;;;;;;17.30;11.07;;;0.90;99.90;;;-143.32;100.00;53210.56;5026582;28;20522;-93
2021/04/13 04:15:16;;;;;;;30.43;11.03;;;0.90;99.90;;;-143.32;100.00;53184.28;5025838;28;20442;-92
2021/04/13 04:43:52;;;;;;;30.73;12.33;;;1.30;99.90;;;-143.32;100.00;53115.63;5873367;23;20489;-92
2021/04/13 04:58:03;;;;;;;24.33;10.03;;;1.50;99.90;;;-143.32;100.00;53170.16;5369448;23;20520;-90
2021/04/13 05:01:16;;;;;;;;;;;;;;;;;;;;;
2021/04/13 05:07:15;;;;;;;18.67;10.20;;;1.70;67.30;;;-143.32;100.00;53158.03;5016939;28;20458;-89
2021/04/13 05:09:42;;;;;;;17.43;10.30;;;1.70;19.80;;;-143.32;100.00;53164.09;5018995;28;20454;-90
2021/04/13 05:13:14;;;;;;;17.53;10.30;;;1.70;1.00;;;-143.32;100.00;53143.91;5019404;28;20477;-91
2021/04/13 05:15:58;;;;;;;19.83;9.80;;;1.80;1.00;;;-143.32;100.00;53129.75;4904083;29;20460;-90
2021/04/13 05:19:06;;;;;;;19.20;10.30;;;1.80;1.00;;;-143.32;100.00;53105.53;5005858;28;20485;-92
2021/04/13 05:33:26;;;;;;;29.30;10.40;;;2.00;1.00;;;-143.32;100.00;53137.84;4844287;29;20565;-90
2021/04/13 05:58:24;;;;;;;27.20;9.20;;;3.20;1.00;;;-143.32;100.00;53051.00;5212700;23;20496;-93
2021/04/13 06:04:51;;;;;;;22.57;9.73;;;3.60;1.00;;;-143.32;99.11;53077.25;5017200;28;20409;-89
2021/04/13 07:16:19;;;;;;;;;;;;;;;;;;;;;
2021/04/13 07:19:14;;;;;;;;;;;;;;;;;;;;;
2021/04/13 07:22:16;;;;;;;12.60;5.67;;;6.10;99.90;;;-143.32;92.46;53101.50;5015595;28;20465;-90
2021/04/13 07:25:56;;;;;;;;;;;;;;;;;;;;;
2021/04/13 08:35:49;;;;;;;14.97;3.23;;;7.60;99.90;;;-143.32;84.69;53008.59;5028908;28;20409;-90
2021/04/13 08:43:07;;;;;;;13.20;3.20;;;8.50;99.90;;;-143.32;78.26;52974.25;4914116;29;20496;-91
2021/04/13 08:53:39;;;;;;;;;;;;;;;;;;;;;
2021/04/13 08:56:23;;;;;;;12.90;3.60;;;8.80;27.70;;;-143.32;81.93;53048.97;4986145;28;20470;-91
2021/04/13 08:59:52;;;;;;;;;;;;;;;;;;;;;
2021/04/13 09:12:06;;;;;;;14.07;3.67;;;7.00;99.90;;;-143.32;85.55;53208.53;4991472;28;20478;-91
2021/04/13 09:14:54;;;;;;;15.30;3.43;;;7.00;99.90;;;-143.32;83.57;53125.72;5023659;28;20454;-94
2021/04/13 09:18:15;;;;;;;11.63;3.30;;;7.60;99.90;;;-143.32;79.81;53038.88;5027295;28;20450;-93
2021/04/13 09:21:12;;;;;;;13.23;2.97;;;8.70;87.80;;;-143.32;76.54;53087.34;5025878;28;20442;-93
2021/04/13 09:24:30;;;;;;;10.87;2.10;;;9.00;1.00;;;-143.32;76.28;53131.78;5034290;28;21089;-91
2021/04/13 09:27:22;;;;;;;14.03;2.90;;;9.00;1.00;;;-143.32;78.36;53168.13;5031945;28;20449;-92
2021/04/13 09:29:59;;;;;;;22.10;3.20;;;8.90;1.00;;;-143.32;79.79;53254.97;5029880;28;20477;-92
2021/04/13 09:32:50;;;;;;;11.97;2.63;;;8.00;1.00;;;-143.32;80.06;53222.66;5029097;28;20828;-92
2021/04/13 09:39:42;;;;;;;17.37;2.70;;;8.50;1.00;;;-143.32;75.53;53196.41;5030322;28;21013;-89
2021/04/13 09:42:49;;;;;;;5.03;1.90;;;8.80;1.00;;;-143.32;71.97;53279.22;5025325;28;20788;-91
2021/04/13 09:45:30;;;;;;;8.50;2.20;;;8.50;1.00;;;-143.32;74.42;53323.66;5026148;28;20438;-92
2021/04/13 09:48:54;;;;;;;10.23;2.40;;;8.10;1.00;;;-143.32;76.58;53323.66;5029702;28;20537;-89
2021/04/13 09:51:29;;;;;;;14.53;2.50;;;7.90;1.00;;;-143.32;75.62;53303.44;4995996;28;20560;-87
2021/04/13 09:54:34;;;;;;;9.77;3.03;;;8.00;1.00;;;-143.32;76.39;53313.56;5022713;28;20442;-92
2021/04/13 09:57:51;;;;;;;6.27;2.30;;;8.10;1.00;;;-143.32;76.33;53246.91;5021039;28;20449;-90
2021/04/13 10:00:55;;;;;;;9.70;2.20;;;8.50;1.00;;;-143.32;68.22;53349.91;5021690;28;20461;-88
2021/04/13 10:12:15;;;;;;;5.40;2.30;;;9.00;99.90;;;-143.32;62.04;53469.06;5021014;28;20504;-89
2021/04/13 10:15:22;;;;;;;7.27;1.97;;;9.00;99.90;;;-143.32;65.29;53446.84;5022392;28;20905;-91
2021/04/13 10:22:40;;;;;;;8.00;2.23;;;8.90;99.90;;;-143.32;62.26;53531.69;5029663;28;20445;-92
2021/04/13 10:26:06;;;;;;;6.13;2.00;;;9.00;99.90;;;-143.32;60.96;53483.22;5007831;28;20458;-91
2021/04/13 10:29:48;;;;;;;12.53;2.33;;;9.20;99.90;;;-143.32;53.14;53634.69;5016851;28;20508;-90
2021/04/13 10:33:05;;;;;;;4.97;1.70;;;9.30;99.90;;;-143.32;52.97;53669.03;5021674;28;20548;-89
2021/04/13 10:36:32;;;;;;;15.97;3.03;;;9.20;99.90;;;-143.32;54.17;53677.13;5021937;28;20473;-91
2021/04/13 10:39:49;;;;;;;8.13;2.03;;;9.10;99.90;;;-143.32;57.36;53638.72;5020759;28;20430;-89
2021/04/13 10:43:23;;;;;;;5.77;1.67;;;9.20;99.90;;;-143.32;52.50;53689.22;5017166;28;20466;-89
2021/04/13 10:46:44;;;;;;;5.43;1.50;;;9.20;99.90;;;-143.32;50.96;53737.72;5016689;28;20458;-91
2021/04/13 10:54:21;;;;;;;6.23;1.90;;;9.10;99.90;;;-143.32;45.65;53881.13;4936110;29;20465;-91
2021/04/13 11:29:34;;;;;;;4.93;1.90;;;9.10;99.90;;;-143.32;56.03;53901.31;5875572;23;20489;-89
2021/04/13 11:33:19;;;;;;;;;;;;;;;;;;;;;
2021/04/13 11:46:36;;;;;;;;;;;;;;;;;;;;;
2021/04/13 11:57:14;;;;;;;;;;;;;;;;;;;;;
2021/04/13 12:00:22;;;;;;;6.17;1.70;;;9.70;99.90;;;-143.32;43.82;54054.84;4996012;28;20433;-92
2021/04/13 12:03:43;;;;;;;4.07;1.77;;;9.40;99.90;;;-143.32;41.00;54103.34;4975386;28;20489;-92
2021/04/13 12:06:27;;;;;;;2.03;1.30;;;9.30;99.90;;;-143.32;38.88;54135.66;4994903;28;20446;-89
2021/04/13 12:50:32;;;;;;;5.10;1.97;;;8.90;99.90;;;-143.32;40.68;54309.41;5388246;23;21039;-91
2021/04/13 12:53:29;;;;;;;3.20;1.70;;;8.90;99.90;;;-143.32;41.56;54258.88;5474279;23;21353;-90
2021/04/13 12:56:37;;;;;;;3.70;1.70;;;8.90;99.90;;;-143.32;41.19;54285.16;4993660;28;20478;-90
2021/04/13 12:59:17;;;;;;;2.37;1.47;;;9.10;99.90;;;-143.32;39.89;54343.75;4996799;28;20455;-89
2021/04/13 13:11:42;;;;;;;3.37;1.67;;;9.70;99.90;;;-143.32;37.30;54347.78;5393300;23;20949;-91
2021/04/13 13:39:55;;;;;;;8.60;1.90;;;9.50;99.90;;;-143.32;41.91;54311.41;5020157;28;20500;-90
2021/04/13 13:42:24;;;;;;;2.57;1.30;;;9.70;99.90;;;-143.32;38.30;54325.56;5013734;28;20450;-92
2021/04/13 13:44:59;;;;;;;4.07;1.90;;;9.90;99.90;;;-143.32;39.26;54321.53;5018945;28;20742;-94
2021/04/13 13:47:37;;;;;;;2.93;1.80;;;9.90;99.90;;;-143.32;40.89;54291.22;5018375;28;20437;-90
2021/04/13 13:54:46;;;;;;;5.73;3.00;;;9.80;99.90;;;-143.32;41.33;54319.50;4939358;29;20430;-91
2021/04/13 14:00:02;;;;;;;8.57;3.33;;;9.60;99.90;;;-143.32;49.74;54311.41;5083943;23;20490;-94
2021/04/13 14:02:32;;;;;;;11.53;2.47;;;9.30;99.90;;;-143.32;49.96;54370.00;5020211;28;20464;-89
2021/04/13 14:05:22;;;;;;;4.97;1.70;;;8.70;99.90;;;-143.32;51.18;54412.44;5016918;28;20477;-93
2021/04/13 14:11:33;;;;;;;7.17;2.27;;;7.90;99.90;;;-143.32;46.84;54509.41;5016794;28;20476;-93
2021/04/13 14:17:43;;;;;;;2.00;1.40;;;7.60;99.90;;;-143.32;45.40;54509.41;5017870;28;20769;-91
2021/04/13 14:20:13;;;;;;;4.30;1.40;;;7.80;99.90;;;-143.32;44.10;54485.16;5018381;28;20449;-92
2021/04/13 14:26:30;;;;;;;1.67;1.40;;;8.30;99.90;;;-143.32;43.49;54440.72;5016696;28;20417;-92
2021/04/13 14:32:38;;;;;;;2.10;1.40;;;8.70;99.90;;;-143.32;41.59;54466.97;5016692;28;20472;-93
2021/04/13 14:35:10;;;;;;;4.03;1.80;;;8.80;99.90;;;-143.32;41.99;54432.63;5017180;28;20592;-93
2021/04/13 14:37:39;;;;;;;2.90;1.60;;;8.80;99.90;;;-143.32;42.82;54406.38;5018534;28;20777;-93
2021/04/13 14:40:14;;;;;;;7.37;1.87;;;8.90;99.90;;;-143.32;42.79;54454.84;5019409;28;20469;-92
2021/04/13 14:42:52;;;;;;;2.60;1.50;;;8.90;99.90;;;-143.32;43.49;54428.59;5021693;28;20436;-92
2021/04/13 14:45:31;;;;;;;5.13;1.50;;;8.90;99.90;;;-143.32;43.37;54442.72;5027276;28;20457;-93
2021/04/13 14:48:30;;;;;;;4.00;1.90;;;8.80;99.90;;;-143.32;44.91;54414.44;5031574;28;20537;-94
2021/04/13 14:54:39;;;;;;;4.27;1.50;;;9.00;99.90;;;-143.32;46.40;54370.00;5015907;28;20437;-92
2021/04/13 14:57:08;;;;;;;3.70;1.93;;;9.30;99.90;;;-143.32;47.42;54339.69;5025083;28;20461;-93
2021/04/13 14:59:35;;;;;;;4.07;1.80;;;9.40;99.90;;;-143.32;50.23;54297.28;5021826;28;20826;-92
2021/04/13 15:02:02;;;;;;;4.13;1.77;;;9.40;99.90;;;-143.32;47.44;54349.81;5018564;28;20454;-93
2021/04/13 15:04:29;;;;;;;7.13;1.60;;;9.40;99.90;;;-143.32;47.06;54345.75;5019515;28;20913;-92
2021/04/13 15:10:49;;;;;;;3.77;1.80;;;9.30;99.90;;;-143.32;48.06;54345.75;5020051;28;20509;-94
2021/04/13 15:13:18;;;;;;;5.50;1.70;;;9.20;99.90;;;-143.32;47.08;54388.19;5034686;28;20521;-94
2021/04/13 15:15:49;;;;;;;3.70;1.50;;;9.20;99.90;;;-143.32;45.93;54396.28;5025664;28;20465;-93
2021/04/13 15:18:20;;;;;;;2.00;1.40;;;9.10;99.90;;;-143.32;46.79;54370.00;5025594;28;20466;-93
2021/04/13 15:20:51;;;;;;;4.10;2.23;;;9.10;99.90;;;-143.32;46.81;54365.97;5022941;28;20916;-93
2021/04/13 15:23:20;;;;;;;4.60;1.80;;;9.20;99.90;;;-143.32;48.36;54355.88;5023695;28;20453;-93
2021/04/13 15:25:48;;;;;;;10.00;2.13;;;9.10;99.90;;;-143.32;49.84;54345.75;5022778;28;20434;-92
2021/04/13 15:28:24;;;;;;;4.70;2.37;;;9.10;99.90;;;-143.32;49.71;54341.72;5021620;28;20430;-93
2021/04/13 15:30:51;;;;;;;5.33;1.50;;;9.20;99.90;;;-143.32;48.83;54365.97;5022569;28;20430;-92
2021/04/13 15:33:23;;;;;;;8.33;1.70;;;9.10;99.90;;;-143.32;46.90;54325.56;5022571;28;20490;-94
2021/04/13 15:35:57;;;;;;;1.67;1.57;;;9.20;99.90;;;-143.32;45.03;54372.03;5022455;28;20407;-93
2021/04/13 15:38:27;;;;;;;3.93;1.87;;;9.20;99.90;;;-143.32;43.30;54440.72;5022023;28;20461;-93
2021/04/13 15:44:46;;;;;;;3.27;1.43;;;9.00;99.90;;;-143.32;41.99;54471.03;5023323;28;20434;-94
2021/04/13 15:47:18;;;;;;;2.70;1.47;;;8.80;99.90;;;-143.32;43.79;54487.19;5019844;28;20429;-94
2021/04/13 15:53:41;;;;;;;1.63;1.10;;;8.80;99.90;;;-143.32;43.50;54481.13;5017072;28;20493;-92
2021/04/13 16:00:16;;;;;;;14.83;2.23;;;8.80;99.90;;;-143.32;46.47;54384.16;5030458;28;20421;-93
2021/04/13 16:02:58;;;;;;;;;;;;;;;;;;;;;
2021/04/13 16:05:51;;;;;;;9.47;3.30;;;8.80;99.90;;;-143.32;46.61;54471.03;5019592;28;20469;-92
2021/04/13 16:13:04;;;;;;;26.33;3.50;;;8.70;99.90;;;-143.32;46.98;54434.66;5025428;28;20480;-92
2021/04/13 17:03:25;;;;;;;2.47;1.67;;;8.30;99.90;;;-143.32;42.26;54543.75;5598639;23;20505;-92
2021/04/13 17:06:03;;;;;;;4.53;1.57;;;8.40;99.90;;;-143.32;42.80;54547.78;5014448;28;20478;-91
2021/04/13 17:08:53;;;;;;;2.60;1.50;;;8.30;99.90;;;-143.32;41.84;54568.00;5015729;28;20501;-91
2021/04/13 17:20:44;;;;;;;6.60;2.50;;;8.60;99.90;;;-143.32;40.14;54543.75;5955513;23;20441;-92
2021/04/13 17:23:18;;;;;;;4.67;1.50;;;8.60;99.90;;;-143.32;38.73;54572.03;5015522;28;20450;-90
2021/04/13 17:25:47;;;;;;;6.33;1.70;;;8.60;99.90;;;-143.32;39.86;54578.09;5015538;28;20458;-92
2021/04/13 17:28:25;;;;;;;2.57;1.47;;;8.60;99.90;;;-143.32;39.46;54612.44;5014454;28;20488;-92
2021/04/13 17:31:23;;;;;;;1.67;1.50;;;8.50;99.90;;;-143.32;38.88;54610.44;5014708;28;20438;-92
2021/04/13 17:37:57;;;;;;;;;;;;;;;;;;;;;
2021/04/13 17:40:50;;;;;;;2.77;1.80;;;8.10;99.90;;;-143.32;41.18;54626.59;5036589;28;20416;-91
2021/04/13 17:43:45;;;;;;;2.40;1.53;;;7.90;99.90;;;-143.32;42.49;54608.41;5029274;28;20440;-93
